Time;durP1;ratioP1;P1;durP2;ratioP2;P2;SDS_P1;SDS_P2;PMS_P1;PMS_P2;Temp;Humidity;BMP_temperature;BMP_pressure;BME280_temperature;BME280_humidity;BME280_pressure;Samples;Min_cycle;Max_cycle;Signal;HPM_P1;HPM_P2
2022/08/06 00:00:30;;;;;;;1.33;1.20;;;;;;;;;;5076736;28;20208;-62
2022/08/06 00:02:57;;;;;;;1.58;1.48;;;;;;;;;;5076370;28;20273;-62
2022/08/06 00:05:25;;;;;;;2.15;1.33;;;;;;;;;;5076308;28;20204;-62
2022/08/06 00:07:56;;;;;;;1.90;1.27;;;;;;;;;;5076655;28;20222;-62
2022/08/06 00:10:24;;;;;;;2.00;1.35;;;;;;;;;;5076380;28;20199;-62
2022/08/06 00:12:51;;;;;;;2.67;1.25;;;;;;;;;;5076235;28;20353;-63
2022/08/06 00:15:19;;;;;;;2.40;1.30;;;;;;;;;;5077017;28;20204;-62
2022/08/06 00:17:46;;;;;;;2.45;1.20;;;;;;;;;;5079531;28;20258;-63
2022/08/06 00:20:15;;;;;;;1.55;1.33;;;;;;;;;;5079856;28;20545;-62
2022/08/06 00:22:42;;;;;;;3.15;1.50;;;;;;;;;;5080656;28;20269;-62
2022/08/06 00:25:11;;;;;;;1.55;1.40;;;;;;;;;;5080318;28;20281;-62
2022/08/06 00:27:39;;;;;;;1.50;1.40;;;;;;;;;;5079893;28;20208;-62
2022/08/06 00:30:07;;;;;;;4.35;1.70;;;;;;;;;;5080922;28;20235;-62
2022/08/06 00:32:35;;;;;;;1.67;1.30;;;;;;;;;;5080044;28;20269;-62
2022/08/06 00:35:02;;;;;;;1.45;1.30;;;;;;;;;;5079668;28;20223;-62
2022/08/06 00:37:32;;;;;;;3.63;1.60;;;;;;;;;;5079221;28;20243;-62
2022/08/06 00:40:01;;;;;;;1.95;1.60;;;;;;;;;;5079653;28;20211;-62
2022/08/06 00:42:30;;;;;;;2.58;1.35;;;;;;;;;;5079763;28;20208;-62
2022/08/06 00:44:57;;;;;;;1.50;1.40;;;;;;;;;;5080112;28;20204;-62
2022/08/06 00:47:24;;;;;;;1.92;1.60;;;;;;;;;;5079844;28;20581;-62
2022/08/06 00:49:52;;;;;;;1.25;1.20;;;;;;;;;;5079308;28;20228;-62
2022/08/06 00:52:19;;;;;;;1.50;1.40;;;;;;;;;;5080052;28;20601;-62
2022/08/06 00:54:46;;;;;;;2.45;1.48;;;;;;;;;;5079650;28;20589;-63
2022/08/06 00:57:13;;;;;;;1.92;1.40;;;;;;;;;;5079408;28;20665;-62
2022/08/06 00:59:42;;;;;;;2.00;1.73;;;;;;;;;;5079832;28;20208;-62
2022/08/06 01:02:10;;;;;;;2.65;1.70;;;;;;;;;;5079251;28;20212;-63
2022/08/06 01:04:37;;;;;;;2.20;1.52;;;;;;;;;;5079321;28;20282;-64
2022/08/06 01:07:04;;;;;;;2.00;1.67;;;;;;;;;;5078817;28;20208;-64
2022/08/06 01:09:32;;;;;;;2.30;1.50;;;;;;;;;;5078631;28;20681;-64
2022/08/06 01:11:59;;;;;;;1.98;1.38;;;;;;;;;;5079250;28;20266;-64
2022/08/06 01:14:27;;;;;;;3.03;1.48;;;;;;;;;;5079119;28;20311;-64
2022/08/06 01:16:59;;;;;;;1.80;1.70;;;;;;;;;;5078934;28;20204;-62
2022/08/06 01:19:35;;;;;;;2.42;1.60;;;;;;;;;;5079143;28;20333;-62
2022/08/06 01:22:11;;;;;;;3.50;1.60;;;;;;;;;;5079561;28;20200;-63
2022/08/06 01:24:45;;;;;;;2.15;1.73;;;;;;;;;;5079078;28;20200;-62
2022/08/06 01:27:33;;;;;;;2.15;1.60;;;;;;;;;;5078934;28;20203;-64
2022/08/06 01:30:05;;;;;;;2.13;1.88;;;;;;;;;;5078317;28;20236;-64
2022/08/06 01:32:34;;;;;;;2.05;1.70;;;;;;;;;;5079254;28;20273;-62
2022/08/06 01:35:03;;;;;;;2.28;2.08;;;;;;;;;;5079035;28;20595;-62
2022/08/06 01:37:32;;;;;;;3.10;1.90;;;;;;;;;;5078694;28;20306;-62
2022/08/06 01:40:02;;;;;;;2.60;2.08;;;;;;;;;;5079282;28;20212;-62
2022/08/06 01:42:31;;;;;;;2.00;1.85;;;;;;;;;;5078541;28;20204;-63
2022/08/06 01:45:00;;;;;;;2.22;2.10;;;;;;;;;;5079095;28;20298;-62
2022/08/06 01:47:29;;;;;;;2.20;2.00;;;;;;;;;;5079421;28;20219;-62
2022/08/06 01:49:57;;;;;;;2.00;1.80;;;;;;;;;;5078632;28;20232;-62
2022/08/06 01:52:25;;;;;;;2.10;1.90;;;;;;;;;;5079151;28;20613;-62
2022/08/06 01:54:53;;;;;;;2.50;2.10;;;;;;;;;;5078348;28;20197;-62
2022/08/06 01:57:23;;;;;;;2.55;2.22;;;;;;;;;;5079407;28;20208;-62
2022/08/06 01:59:55;;;;;;;2.45;2.20;;;;;;;;;;5078887;28;20204;-63
2022/08/06 02:02:25;;;;;;;2.47;2.25;;;;;;;;;;5079120;28;20265;-62
2022/08/06 02:04:53;;;;;;;2.53;2.20;;;;;;;;;;5078916;28;20242;-62
2022/08/06 02:07:23;;;;;;;2.95;2.20;;;;;;;;;;5078829;28;20729;-63
2022/08/06 02:09:52;;;;;;;2.28;2.08;;;;;;;;;;5079086;28;20269;-62
2022/08/06 02:12:20;;;;;;;4.13;2.28;;;;;;;;;;5078815;28;20265;-62
2022/08/06 02:14:52;;;;;;;2.40;2.20;;;;;;;;;;5078481;28;20212;-62
2022/08/06 02:17:23;;;;;;;2.60;2.40;;;;;;;;;;5079485;28;20298;-62
2022/08/06 02:19:51;;;;;;;2.95;2.20;;;;;;;;;;5078757;28;20200;-62
2022/08/06 02:22:18;;;;;;;2.30;2.10;;;;;;;;;;5079202;28;20548;-63
2022/08/06 02:24:47;;;;;;;2.60;2.38;;;;;;;;;;5079218;28;20204;-62
2022/08/06 02:27:16;;;;;;;2.80;1.92;;;;;;;;;;5078477;28;20277;-62
2022/08/06 02:29:43;;;;;;;2.25;2.00;;;;;;;;;;5078628;28;20232;-62
2022/08/06 02:32:13;;;;;;;1.92;1.83;;;;;;;;;;5078326;28;20216;-63
2022/08/06 02:34:41;;;;;;;2.42;2.20;;;;;;;;;;5077892;28;20584;-62
2022/08/06 02:37:12;;;;;;;2.20;2.10;;;;;;;;;;5078520;28;20239;-63
2022/08/06 02:39:41;;;;;;;1.90;1.80;;;;;;;;;;5077786;28;20200;-64
2022/08/06 02:42:13;;;;;;;2.13;2.00;;;;;;;;;;5077494;28;20212;-62
2022/08/06 02:44:44;;;;;;;1.95;1.73;;;;;;;;;;5078304;28;20236;-62
2022/08/06 02:47:14;;;;;;;1.77;1.63;;;;;;;;;;5077783;28;20261;-62
2022/08/06 02:49:45;;;;;;;2.78;1.88;;;;;;;;;;5077973;28;20301;-62
2022/08/06 02:52:16;;;;;;;2.47;1.95;;;;;;;;;;5078045;28;20491;-62
2022/08/06 02:54:45;;;;;;;3.35;1.70;;;;;;;;;;5078193;28;20298;-62
2022/08/06 02:57:15;;;;;;;2.75;1.75;;;;;;;;;;5078135;28;20253;-62
2022/08/06 02:59:45;;;;;;;2.35;1.65;;;;;;;;;;5078041;28;20200;-62
2022/08/06 03:02:14;;;;;;;1.70;1.60;;;;;;;;;;5077911;28;20200;-62
2022/08/06 03:04:43;;;;;;;2.88;1.48;;;;;;;;;;5078109;28;20626;-63
2022/08/06 03:07:13;;;;;;;2.47;1.58;;;;;;;;;;5077647;28;20265;-62
2022/08/06 03:09:42;;;;;;;1.60;1.50;;;;;;;;;;5077850;28;20232;-62
2022/08/06 03:12:09;;;;;;;1.80;1.40;;;;;;;;;;5078286;28;20214;-62
2022/08/06 03:14:39;;;;;;;2.13;1.55;;;;;;;;;;5077639;28;20254;-62
2022/08/06 03:17:07;;;;;;;2.75;1.50;;;;;;;;;;5077507;28;20270;-62
2022/08/06 03:19:35;;;;;;;1.42;1.30;;;;;;;;;;5077944;28;20485;-62
2022/08/06 03:22:03;;;;;;;1.52;1.27;;;;;;;;;;5077824;28;20205;-62
2022/08/06 03:24:32;;;;;;;1.20;1.10;;;;;;;;;;5077758;28;20204;-62
2022/08/06 03:27:00;;;;;;;1.48;1.20;;;;;;;;;;5077735;28;20254;-62
2022/08/06 03:29:28;;;;;;;1.55;1.20;;;;;;;;;;5077307;28;20350;-62
2022/08/06 03:31:57;;;;;;;2.03;1.20;;;;;;;;;;5077616;28;20212;-62
2022/08/06 03:34:25;;;;;;;1.35;1.25;;;;;;;;;;5077375;28;20238;-63
2022/08/06 03:36:53;;;;;;;1.55;1.00;;;;;;;;;;5077371;28;20244;-64
2022/08/06 03:39:21;;;;;;;1.27;1.10;;;;;;;;;;5076885;28;20219;-65
2022/08/06 03:41:50;;;;;;;1.48;1.23;;;;;;;;;;5077431;28;20205;-64
2022/08/06 03:44:17;;;;;;;1.48;1.10;;;;;;;;;;5077470;28;20277;-64
2022/08/06 03:46:46;;;;;;;1.75;1.20;;;;;;;;;;5077141;28;20507;-64
2022/08/06 03:49:16;;;;;;;1.13;1.10;;;;;;;;;;5076828;28;20227;-64
2022/08/06 03:51:44;;;;;;;1.25;1.10;;;;;;;;;;5079822;28;20265;-64
2022/08/06 03:54:12;;;;;;;3.30;1.15;;;;;;;;;;5083626;28;20204;-64
2022/08/06 03:56:41;;;;;;;1.15;1.05;;;;;;;;;;5082351;28;20200;-64
2022/08/06 03:59:10;;;;;;;1.88;1.08;;;;;;;;;;5083605;28;20267;-64
2022/08/06 04:01:38;;;;;;;2.20;1.30;;;;;;;;;;5083733;28;20212;-64
2022/08/06 04:04:06;;;;;;;1.30;1.20;;;;;;;;;;5083956;28;20204;-62
2022/08/06 04:06:34;;;;;;;1.35;1.20;;;;;;;;;;5084362;28;20219;-63
2022/08/06 04:09:01;;;;;;;2.17;1.20;;;;;;;;;;5083580;28;20230;-62
2022/08/06 04:11:29;;;;;;;2.22;1.20;;;;;;;;;;5083623;28;20200;-62
2022/08/06 04:13:57;;;;;;;1.30;1.20;;;;;;;;;;5083863;28;20204;-62
2022/08/06 04:16:26;;;;;;;1.38;1.20;;;;;;;;;;5083527;28;20265;-62
2022/08/06 04:18:56;;;;;;;1.88;1.40;;;;;;;;;;5083493;28;20212;-62
2022/08/06 04:21:24;;;;;;;2.40;1.05;;;;;;;;;;5083653;28;20308;-62
2022/08/06 04:23:52;;;;;;;2.00;1.20;;;;;;;;;;5083681;28;20227;-63
2022/08/06 04:26:22;;;;;;;1.58;1.13;;;;;;;;;;5083098;28;20196;-62
2022/08/06 04:28:52;;;;;;;1.17;1.08;;;;;;;;;;5084042;28;20478;-62
2022/08/06 04:31:20;;;;;;;2.25;1.15;;;;;;;;;;5083325;28;20289;-62
2022/08/06 04:33:50;;;;;;;3.25;1.33;;;;;;;;;;5083420;28;20547;-62
2022/08/06 04:36:17;;;;;;;1.73;1.42;;;;;;;;;;5083223;28;20215;-64
2022/08/06 04:38:45;;;;;;;1.30;1.17;;;;;;;;;;5083068;28;20265;-64
2022/08/06 04:41:12;;;;;;;3.33;1.20;;;;;;;;;;5082586;28;20253;-64
2022/08/06 04:43:41;;;;;;;1.45;1.35;;;;;;;;;;5083541;28;20205;-64
2022/08/06 04:46:10;;;;;;;2.20;1.20;;;;;;;;;;5082911;28;20215;-64
2022/08/06 04:48:37;;;;;;;2.17;1.33;;;;;;;;;;5082930;28;20214;-64
2022/08/06 04:51:07;;;;;;;2.10;1.20;;;;;;;;;;5083039;28;20241;-62
2022/08/06 04:53:37;;;;;;;2.35;1.20;;;;;;;;;;5082788;28;20200;-62
2022/08/06 04:56:05;;;;;;;2.50;1.25;;;;;;;;;;5083690;28;20295;-62
2022/08/06 04:58:32;;;;;;;1.73;1.20;;;;;;;;;;5083689;28;20616;-63
2022/08/06 05:00:59;;;;;;;1.45;1.30;;;;;;;;;;5082989;28;20534;-62
2022/08/06 05:03:27;;;;;;;1.83;1.10;;;;;;;;;;5080600;28;20212;-62
2022/08/06 05:05:56;;;;;;;1.83;1.20;;;;;;;;;;5078870;28;20208;-62
2022/08/06 05:08:27;;;;;;;2.17;1.30;;;;;;;;;;5079095;28;20266;-64
2022/08/06 05:10:57;;;;;;;1.20;1.10;;;;;;;;;;5079832;28;20243;-64
2022/08/06 05:13:26;;;;;;;1.42;1.25;;;;;;;;;;5079410;28;20212;-64
2022/08/06 05:15:58;;;;;;;1.92;1.25;;;;;;;;;;5079511;28;20215;-64
2022/08/06 05:18:27;;;;;;;2.10;1.17;;;;;;;;;;5079483;28;20278;-65
2022/08/06 05:20:56;;;;;;;1.00;1.00;;;;;;;;;;5079566;28;20200;-63
2022/08/06 05:23:26;;;;;;;1.20;1.10;;;;;;;;;;5078680;28;20266;-63
2022/08/06 05:25:54;;;;;;;2.50;1.30;;;;;;;;;;5078986;28;20204;-64
2022/08/06 05:28:22;;;;;;;1.58;1.30;;;;;;;;;;5079396;28;20208;-64
2022/08/06 05:30:50;;;;;;;2.15;1.30;;;;;;;;;;5079032;28;20235;-62
2022/08/06 05:33:24;;;;;;;2.10;1.20;;;;;;;;;;5078544;28;20212;-62
2022/08/06 05:35:52;;;;;;;2.25;1.30;;;;;;;;;;5079587;28;20291;-62
2022/08/06 05:38:19;;;;;;;2.15;1.33;;;;;;;;;;5079294;28;20224;-64
2022/08/06 05:40:46;;;;;;;1.40;1.13;;;;;;;;;;5079307;28;20266;-64
2022/08/06 05:43:15;;;;;;;2.38;1.20;;;;;;;;;;5079134;28;20569;-64
2022/08/06 05:45:43;;;;;;;1.42;1.25;;;;;;;;;;5078789;28;20204;-64
2022/08/06 05:48:12;;;;;;;1.20;1.10;;;;;;;;;;5079176;28;20204;-64
2022/08/06 05:50:43;;;;;;;1.20;1.10;;;;;;;;;;5078536;28;20289;-63
2022/08/06 05:53:13;;;;;;;1.58;1.25;;;;;;;;;;5078197;28;20207;-63
2022/08/06 05:55:41;;;;;;;2.25;1.23;;;;;;;;;;5078785;28;20589;-63
2022/08/06 05:58:12;;;;;;;1.67;1.25;;;;;;;;;;5078655;28;20295;-62
2022/08/06 06:00:42;;;;;;;1.30;1.20;;;;;;;;;;5078997;28;20207;-62
2022/08/06 06:03:12;;;;;;;1.25;1.15;;;;;;;;;;5078584;28;20208;-62
2022/08/06 06:05:40;;;;;;;1.20;1.10;;;;;;;;;;5078496;28;20293;-62
2022/08/06 06:08:08;;;;;;;2.15;1.25;;;;;;;;;;5078814;28;20492;-62
2022/08/06 06:10:36;;;;;;;1.10;1.00;;;;;;;;;;5078960;28;20247;-62
2022/08/06 06:13:04;;;;;;;1.50;1.35;;;;;;;;;;5078325;28;20196;-62
2022/08/06 06:15:32;;;;;;;1.33;1.00;;;;;;;;;;5077927;28;20303;-62
2022/08/06 06:18:12;;;;;;;1.48;1.27;;;;;;;;;;5078440;28;20604;-62
2022/08/06 06:20:44;;;;;;;1.60;1.08;;;;;;;;;;5078030;28;20262;-66
2022/08/06 06:23:15;;;;;;;1.33;1.08;;;;;;;;;;5077819;28;20208;-62
2022/08/06 06:25:45;;;;;;;1.20;1.10;;;;;;;;;;5078620;28;20261;-61
2022/08/06 06:28:17;;;;;;;1.63;1.20;;;;;;;;;;5077469;28;20261;-61
2022/08/06 06:30:48;;;;;;;2.95;1.25;;;;;;;;;;5077880;28;20227;-63
2022/08/06 06:33:24;;;;;;;2.22;1.52;;;;;;;;;;5077685;28;20204;-62
2022/08/06 06:36:02;;;;;;;2.17;1.30;;;;;;;;;;5077382;28;20205;-61
2022/08/06 06:38:36;;;;;;;1.63;1.30;;;;;;;;;;5077282;28;20243;-62
2022/08/06 06:41:08;;;;;;;1.38;1.25;;;;;;;;;;5056190;28;20601;-63
2022/08/06 06:43:40;;;;;;;1.50;1.30;;;;;;;;;;5057391;28;20205;-62
2022/08/06 06:46:10;;;;;;;2.08;1.30;;;;;;;;;;5056753;28;20271;-62
2022/08/06 06:48:42;;;;;;;1.73;1.30;;;;;;;;;;5057929;28;20205;-62
2022/08/06 06:51:10;;;;;;;1.67;1.20;;;;;;;;;;5076765;28;20238;-63
2022/08/06 06:53:41;;;;;;;2.63;1.23;;;;;;;;;;5076297;28;20294;-64
2022/08/06 06:56:09;;;;;;;7.28;1.30;;;;;;;;;;5075981;28;20652;-64
2022/08/06 06:58:38;;;;;;;1.60;1.30;;;;;;;;;;5076518;28;20204;-64
2022/08/06 07:01:06;;;;;;;1.88;1.30;;;;;;;;;;5075374;28;20204;-64
2022/08/06 07:03:35;;;;;;;2.42;1.00;;;;;;;;;;5076219;28;20269;-64
2022/08/06 07:06:08;;;;;;;1.77;1.00;;;;;;;;;;5076376;28;20236;-64
2022/08/06 07:08:36;;;;;;;3.45;1.20;;;;;;;;;;5075466;28;20196;-64
2022/08/06 07:11:03;;;;;;;2.80;0.90;;;;;;;;;;5076312;28;20294;-63
2022/08/06 07:13:31;;;;;;;1.55;0.80;;;;;;;;;;5076383;28;20281;-62
2022/08/06 07:15:59;;;;;;;1.40;0.85;;;;;;;;;;5076597;28;20204;-62
2022/08/06 07:18:27;;;;;;;1.23;0.80;;;;;;;;;;5076637;28;20207;-62
2022/08/06 07:20:55;;;;;;;1.65;0.80;;;;;;;;;;5076290;28;20196;-62
2022/08/06 07:23:23;;;;;;;1.85;0.90;;;;;;;;;;5076113;28;20204;-62
2022/08/06 07:25:51;;;;;;;2.20;0.90;;;;;;;;;;5075430;28;20594;-62
2022/08/06 07:28:19;;;;;;;2.08;0.90;;;;;;;;;;5075726;28;20196;-62
2022/08/06 07:30:48;;;;;;;1.73;0.70;;;;;;;;;;5075362;28;20231;-62
2022/08/06 07:33:15;;;;;;;1.42;0.77;;;;;;;;;;5075097;28;20242;-63
2022/08/06 07:35:43;;;;;;;1.25;0.80;;;;;;;;;;5075222;28;20205;-62
2022/08/06 07:38:12;;;;;;;3.45;1.00;;;;;;;;;;5075448;28;20240;-62
2022/08/06 07:40:43;;;;;;;0.75;0.68;;;;;;;;;;5075155;28;20291;-61
2022/08/06 07:43:12;;;;;;;1.48;0.68;;;;;;;;;;5075207;28;20577;-61
2022/08/06 07:45:39;;;;;;;1.08;0.70;;;;;;;;;;5075175;28;20204;-61
2022/08/06 07:48:08;;;;;;;1.25;0.85;;;;;;;;;;5075847;28;20276;-61
2022/08/06 07:50:37;;;;;;;1.40;0.85;;;;;;;;;;5074797;28;20224;-62
2022/08/06 07:53:04;;;;;;;4.90;0.80;;;;;;;;;;5075117;28;20235;-62
2022/08/06 07:55:31;;;;;;;1.52;0.80;;;;;;;;;;5075117;28;20595;-63
2022/08/06 07:58:03;;;;;;;1.15;0.75;;;;;;;;;;5074999;28;20564;-62
2022/08/06 08:00:31;;;;;;;1.45;0.70;;;;;;;;;;5074668;28;20224;-61
2022/08/06 08:08:30;;;;;;;0.95;0.73;;;;;;;;;;5074582;28;20618;-63
2022/08/06 08:10:58;;;;;;;1.92;0.88;;;;;;;;;;5074206;28;20305;-62
2022/08/06 08:13:28;;;;;;;0.80;0.63;;;;;;;;;;5074577;28;20220;-62
2022/08/06 08:15:56;;;;;;;1.00;0.73;;;;;;;;;;5074164;28;20204;-61
2022/08/06 08:18:29;;;;;;;0.93;0.50;;;;;;;;;;5055929;28;20554;-63
2022/08/06 08:20:59;;;;;;;0.93;0.60;;;;;;;;;;5072579;28;20197;-64
2022/08/06 08:23:27;;;;;;;1.52;0.75;;;;;;;;;;5073895;28;20212;-63
2022/08/06 08:25:56;;;;;;;1.20;0.75;;;;;;;;;;5074892;28;20568;-63
2022/08/06 08:28:23;;;;;;;1.35;0.60;;;;;;;;;;5074568;28;20200;-64
2022/08/06 08:30:57;;;;;;;1.85;0.65;;;;;;;;;;5074253;28;20232;-62
2022/08/06 08:33:25;;;;;;;0.68;0.50;;;;;;;;;;5074875;28;20208;-61
2022/08/06 08:35:54;;;;;;;0.55;0.52;;;;;;;;;;5073784;28;20196;-61
2022/08/06 08:38:22;;;;;;;1.48;0.60;;;;;;;;;;5076130;28;20639;-61
2022/08/06 08:40:52;;;;;;;1.75;0.85;;;;;;;;;;5077256;28;20258;-61
2022/08/06 08:43:21;;;;;;;1.52;0.60;;;;;;;;;;5077937;28;20205;-61
2022/08/06 08:45:51;;;;;;;0.52;0.52;;;;;;;;;;5077634;28;20588;-61
2022/08/06 08:48:21;;;;;;;0.60;0.60;;;;;;;;;;5077944;28;20299;-63
2022/08/06 08:50:49;;;;;;;0.60;0.60;;;;;;;;;;5076837;28;20265;-63
2022/08/06 08:53:21;;;;;;;0.85;0.50;;;;;;;;;;5077372;28;20208;-63
2022/08/06 08:55:48;;;;;;;0.68;0.68;;;;;;;;;;5076982;28;20277;-63
2022/08/06 08:58:17;;;;;;;0.40;0.40;;;;;;;;;;5077611;28;20200;-64
2022/08/06 09:00:44;;;;;;;0.95;0.60;;;;;;;;;;5077067;28;20486;-61
2022/08/06 09:03:11;;;;;;;0.75;0.55;;;;;;;;;;5077694;28;20200;-62
2022/08/06 09:05:41;;;;;;;0.98;0.70;;;;;;;;;;5076967;28;20216;-61
2022/08/06 09:08:11;;;;;;;0.90;0.60;;;;;;;;;;5077536;28;20254;-61
2022/08/06 09:10:38;;;;;;;1.40;0.60;;;;;;;;;;5077159;28;20295;-61
2022/08/06 09:13:06;;;;;;;1.33;0.60;;;;;;;;;;5077062;28;20211;-63
2022/08/06 09:15:34;;;;;;;1.73;0.60;;;;;;;;;;5077321;28;20212;-63
2022/08/06 09:18:02;;;;;;;1.10;0.60;;;;;;;;;;5076792;28;20204;-61
2022/08/06 09:20:29;;;;;;;0.60;0.57;;;;;;;;;;5076294;28;20193;-61
2022/08/06 09:22:59;;;;;;;0.75;0.60;;;;;;;;;;5076994;28;20200;-61
2022/08/06 09:25:37;;;;;;;1.27;0.68;;;;;;;;;;5076613;28;20212;-61
2022/08/06 09:28:05;;;;;;;0.80;0.70;;;;;;;;;;5077527;28;20265;-61
2022/08/06 09:30:32;;;;;;;0.40;0.40;;;;;;;;;;5076762;28;20197;-62
2022/08/06 09:32:59;;;;;;;0.77;0.50;;;;;;;;;;5077482;28;20313;-61
2022/08/06 09:35:27;;;;;;;1.23;0.60;;;;;;;;;;5076488;28;20270;-62
2022/08/06 09:38:02;;;;;;;0.68;0.55;;;;;;;;;;5077025;28;20339;-61
2022/08/06 09:40:30;;;;;;;0.52;0.40;;;;;;;;;;5076919;28;20506;-61
2022/08/06 09:42:57;;;;;;;0.88;0.60;;;;;;;;;;5076695;28;20268;-61
2022/08/06 09:45:26;;;;;;;0.50;0.50;;;;;;;;;;5076167;28;20818;-62
2022/08/06 09:48:01;;;;;;;0.63;0.50;;;;;;;;;;5076399;28;20734;-61
2022/08/06 09:50:42;;;;;;;0.50;0.50;;;;;;;;;;5075376;28;20265;-63
2022/08/06 09:53:10;;;;;;;1.05;0.68;;;;;;;;;;5076221;28;20206;-62
2022/08/06 09:55:38;;;;;;;0.50;0.50;;;;;;;;;;5076296;28;20204;-62
2022/08/06 09:58:05;;;;;;;0.90;0.55;;;;;;;;;;5076734;28;20204;-61
2022/08/06 10:00:33;;;;;;;0.73;0.50;;;;;;;;;;5075996;28;20208;-61
2022/08/06 10:03:01;;;;;;;0.77;0.57;;;;;;;;;;5075996;28;20577;-61
2022/08/06 10:05:29;;;;;;;0.60;0.60;;;;;;;;;;5076143;28;20266;-61
2022/08/06 10:08:04;;;;;;;2.33;0.75;;;;;;;;;;5076293;28;20562;-61
2022/08/06 10:10:43;;;;;;;1.10;0.50;;;;;;;;;;5075898;28;20668;-61
2022/08/06 10:13:15;;;;;;;1.20;0.52;;;;;;;;;;5076781;28;20231;-61
2022/08/06 10:15:44;;;;;;;0.40;0.40;;;;;;;;;;5075905;28;20534;-61
2022/08/06 10:18:12;;;;;;;0.68;0.50;;;;;;;;;;5075598;28;20204;-62
2022/08/06 10:20:59;;;;;;;0.77;0.60;;;;;;;;;;5074984;28;20261;-63
2022/08/06 10:23:26;;;;;;;1.15;0.80;;;;;;;;;;5075316;28;20200;-63
2022/08/06 10:25:55;;;;;;;0.52;0.52;;;;;;;;;;5075559;28;20778;-63
2022/08/06 10:28:25;;;;;;;1.35;0.50;;;;;;;;;;5075734;28;20212;-61
2022/08/06 10:30:52;;;;;;;0.77;0.50;;;;;;;;;;5074320;28;20285;-61
2022/08/06 10:33:20;;;;;;;0.60;0.40;;;;;;;;;;5075286;28;20224;-62
2022/08/06 10:35:48;;;;;;;0.80;0.50;;;;;;;;;;5075036;28;20212;-63
2022/08/06 10:38:16;;;;;;;0.93;0.60;;;;;;;;;;5074618;28;20243;-62
2022/08/06 10:40:46;;;;;;;1.05;0.60;;;;;;;;;;5074342;28;20196;-61
2022/08/06 10:43:18;;;;;;;0.60;0.60;;;;;;;;;;5074768;28;20258;-61
2022/08/06 10:45:45;;;;;;;1.90;0.40;;;;;;;;;;5074835;28;20831;-61
2022/08/06 10:48:13;;;;;;;0.52;0.50;;;;;;;;;;5075540;28;20211;-61
2022/08/06 10:50:40;;;;;;;0.93;0.50;;;;;;;;;;5074596;28;20196;-61
2022/08/06 10:53:10;;;;;;;0.40;0.40;;;;;;;;;;5075152;28;20235;-62
2022/08/06 10:55:37;;;;;;;0.40;0.40;;;;;;;;;;5075134;28;20486;-63
2022/08/06 10:58:04;;;;;;;0.73;0.50;;;;;;;;;;5074294;28;20568;-63
2022/08/06 11:00:35;;;;;;;1.38;0.57;;;;;;;;;;5072826;28;20577;-63
2022/08/06 11:03:08;;;;;;;1.52;0.60;;;;;;;;;;5073797;28;20901;-64
2022/08/06 11:05:38;;;;;;;1.17;0.50;;;;;;;;;;5072950;28;20204;-63
2022/08/06 11:08:21;;;;;;;0.80;0.40;;;;;;;;;;5073148;28;20212;-64
2022/08/06 11:10:55;;;;;;;1.20;0.40;;;;;;;;;;5072111;28;20264;-63
2022/08/06 11:13:27;;;;;;;1.33;0.55;;;;;;;;;;5074145;28;20649;-62
2022/08/06 11:15:56;;;;;;;0.52;0.47;;;;;;;;;;5073523;28;20197;-61
2022/08/06 11:18:23;;;;;;;0.85;0.40;;;;;;;;;;5075007;28;20560;-62
2022/08/06 11:20:52;;;;;;;0.57;0.45;;;;;;;;;;5074575;28;20196;-61
2022/08/06 11:23:26;;;;;;;0.45;0.40;;;;;;;;;;5074202;28;20561;-61
2022/08/06 11:25:55;;;;;;;1.08;0.50;;;;;;;;;;5074237;28;20204;-63
2022/08/06 11:28:49;;;;;;;0.50;0.40;;;;;;;;;;5073116;28;20208;-62
2022/08/06 11:31:32;;;;;;;0.82;0.43;;;;;;;;;;5073280;28;20266;-62
2022/08/06 11:34:02;;;;;;;0.70;0.50;;;;;;;;;;5073189;28;20231;-62
2022/08/06 11:36:30;;;;;;;0.55;0.32;;;;;;;;;;5073960;28;20562;-61
2022/08/06 11:39:01;;;;;;;0.95;0.40;;;;;;;;;;5073980;28;20204;-62
2022/08/06 11:41:28;;;;;;;0.50;0.40;;;;;;;;;;5072739;28;20227;-61
2022/08/06 11:44:06;;;;;;;0.40;0.40;;;;;;;;;;5074053;28;20220;-62
2022/08/06 11:46:34;;;;;;;0.73;0.40;;;;;;;;;;5072888;28;20204;-62
2022/08/06 11:49:20;;;;;;;0.40;0.40;;;;;;;;;;5073169;28;20207;-61
2022/08/06 11:51:49;;;;;;;0.30;0.30;;;;;;;;;;5073474;28;20242;-64
2022/08/06 11:54:17;;;;;;;0.85;0.40;;;;;;;;;;5073591;28;20226;-63
2022/08/06 11:57:04;;;;;;;1.70;0.50;;;;;;;;;;5072178;28;20229;-63
2022/08/06 11:59:33;;;;;;;0.68;0.68;;;;;;;;;;5072767;28;20200;-64
2022/08/06 12:02:04;;;;;;;0.73;0.40;;;;;;;;;;5073865;28;20203;-64
2022/08/06 12:04:44;;;;;;;0.52;0.40;;;;;;;;;;5073667;28;20662;-63
2022/08/06 12:07:21;;;;;;;0.55;0.30;;;;;;;;;;5073497;28;20281;-63
2022/08/06 12:09:59;;;;;;;0.40;0.30;;;;;;;;;;5073385;28;20224;-64
2022/08/06 12:12:34;;;;;;;0.47;0.47;;;;;;;;;;5074063;28;20230;-63
2022/08/06 12:15:02;;;;;;;0.52;0.40;;;;;;;;;;5078465;28;20690;-62
2022/08/06 12:17:30;;;;;;;0.45;0.32;;;;;;;;;;5078072;28;20204;-61
2022/08/06 12:19:58;;;;;;;0.70;0.30;;;;;;;;;;5077476;28;20215;-61
2022/08/06 12:22:27;;;;;;;0.55;0.35;;;;;;;;;;5078001;28;20200;-63
2022/08/06 12:24:58;;;;;;;1.20;0.40;;;;;;;;;;5077547;28;20735;-62
2022/08/06 12:27:31;;;;;;;0.30;0.30;;;;;;;;;;5077146;28;20248;-61
2022/08/06 12:29:59;;;;;;;0.40;0.40;;;;;;;;;;5078011;28;20295;-61
2022/08/06 12:32:28;;;;;;;0.43;0.30;;;;;;;;;;5077362;28;20219;-61
2022/08/06 12:34:57;;;;;;;0.30;0.30;;;;;;;;;;5078344;28;20326;-61
2022/08/06 12:37:33;;;;;;;0.35;0.30;;;;;;;;;;5077475;28;20240;-62
2022/08/06 12:42:46;;;;;;;0.30;0.30;;;;;;;;;;5077763;28;20196;-62
2022/08/06 12:45:14;;;;;;;0.40;0.40;;;;;;;;;;5077234;28;20510;-61
2022/08/06 12:47:41;;;;;;;0.50;0.40;;;;;;;;;;5078150;28;20201;-63
2022/08/06 12:50:18;;;;;;;0.43;0.30;;;;;;;;;;5075424;28;20551;-62
2022/08/06 12:53:02;;;;;;;0.45;0.30;;;;;;;;;;5077564;28;20236;-62
2022/08/06 12:55:30;;;;;;;0.30;0.30;;;;;;;;;;5077293;28;20295;-62
2022/08/06 12:57:58;;;;;;;0.73;0.30;;;;;;;;;;5077509;28;20487;-62
2022/08/06 13:00:25;;;;;;;0.43;0.40;;;;;;;;;;5076719;28;20208;-61
2022/08/06 13:02:53;;;;;;;0.35;0.32;;;;;;;;;;5075884;28;20630;-61
2022/08/06 13:05:20;;;;;;;0.30;0.30;;;;;;;;;;5075842;28;20641;-63
2022/08/06 13:07:50;;;;;;;1.15;0.40;;;;;;;;;;5076818;28;20294;-61
2022/08/06 13:10:17;;;;;;;1.27;0.47;;;;;;;;;;5077082;28;20595;-62
2022/08/06 13:12:44;;;;;;;0.50;0.40;;;;;;;;;;5076387;28;20224;-62
2022/08/06 13:15:13;;;;;;;0.30;0.28;;;;;;;;;;5077078;28;20273;-61
2022/08/06 13:17:40;;;;;;;0.45;0.30;;;;;;;;;;5076514;28;20196;-62
2022/08/06 13:20:08;;;;;;;0.30;0.30;;;;;;;;;;5077269;28;20498;-61
2022/08/06 13:25:27;;;;;;;0.73;0.30;;;;;;;;;;5132234;27;20553;-62
2022/08/06 13:28:09;;;;;;;0.30;0.30;;;;;;;;;;5132540;27;20202;-63
2022/08/06 13:30:36;;;;;;;0.52;0.40;;;;;;;;;;5133582;27;20295;-62
2022/08/06 13:33:13;;;;;;;0.40;0.38;;;;;;;;;;5132386;27;20210;-62
2022/08/06 13:35:40;;;;;;;0.50;0.28;;;;;;;;;;5132967;27;20262;-62
2022/08/06 13:38:09;;;;;;;0.43;0.30;;;;;;;;;;5132741;27;20221;-62
2022/08/06 13:40:44;;;;;;;0.40;0.30;;;;;;;;;;5132262;27;20202;-62
2022/08/06 13:43:11;;;;;;;0.63;0.40;;;;;;;;;;5132155;27;20205;-63
2022/08/06 13:45:39;;;;;;;0.60;0.40;;;;;;;;;;5131797;27;20594;-62
2022/08/06 13:48:07;;;;;;;0.55;0.40;;;;;;;;;;5132000;27;20263;-62
2022/08/06 13:50:34;;;;;;;0.38;0.30;;;;;;;;;;5132053;27;20679;-62
2022/08/06 13:53:02;;;;;;;0.55;0.38;;;;;;;;;;5132172;27;20654;-62
2022/08/06 13:55:29;;;;;;;0.30;0.30;;;;;;;;;;5131797;27;20263;-63
2022/08/06 13:57:58;;;;;;;0.30;0.30;;;;;;;;;;5132386;27;20285;-62
2022/08/06 14:00:26;;;;;;;0.28;0.20;;;;;;;;;;5132769;27;20252;-62
2022/08/06 14:02:54;;;;;;;0.52;0.40;;;;;;;;;;5131845;27;20208;-63
2022/08/06 14:05:22;;;;;;;0.63;0.30;;;;;;;;;;5131632;27;20740;-62
2022/08/06 14:07:49;;;;;;;0.57;0.38;;;;;;;;;;5131452;27;20202;-63
2022/08/06 14:10:18;;;;;;;0.63;0.40;;;;;;;;;;5130768;27;20271;-63
2022/08/06 14:13:15;;;;;;;0.45;0.35;;;;;;;;;;5132007;27;20203;-63
2022/08/06 14:15:37;;;;;;;0.65;0.30;;;;;;;;;;5131346;28;20291;-62
2022/08/06 14:18:04;;;;;;;0.88;0.40;;;;;;;;;;5131650;27;20211;-62
2022/08/06 14:20:32;;;;;;;0.52;0.30;;;;;;;;;;5131234;27;20256;-62
2022/08/06 14:22:59;;;;;;;0.40;0.30;;;;;;;;;;5131075;27;20210;-62
2022/08/06 14:25:26;;;;;;;0.50;0.35;;;;;;;;;;5131159;28;20230;-63
2022/08/06 14:27:54;;;;;;;0.30;0.30;;;;;;;;;;5131888;27;20203;-62
2022/08/06 14:30:22;;;;;;;0.40;0.30;;;;;;;;;;5130807;27;20622;-62
2022/08/06 14:32:51;;;;;;;0.28;0.28;;;;;;;;;;5131476;27;20286;-62
2022/08/06 14:35:18;;;;;;;0.43;0.40;;;;;;;;;;5126274;27;20286;-62
2022/08/06 14:37:46;;;;;;;0.32;0.32;;;;;;;;;;5117474;28;20210;-62
2022/08/06 14:40:14;;;;;;;0.65;0.20;;;;;;;;;;5117050;28;20260;-62
2022/08/06 14:45:26;;;;;;;0.38;0.30;;;;;;;;;;5116908;28;20225;-63
2022/08/06 14:47:55;;;;;;;0.32;0.30;;;;;;;;;;5117521;28;20263;-62
2022/08/06 14:50:23;;;;;;;0.50;0.30;;;;;;;;;;5116732;28;20686;-62
2022/08/06 14:52:50;;;;;;;0.35;0.30;;;;;;;;;;5117724;28;20206;-62
2022/08/06 14:55:17;;;;;;;0.30;0.30;;;;;;;;;;5117423;28;20264;-62
2022/08/06 14:57:45;;;;;;;0.77;0.32;;;;;;;;;;5117201;28;20268;-63
2022/08/06 15:00:13;;;;;;;0.22;0.20;;;;;;;;;;5116619;27;20195;-62
2022/08/06 15:02:41;;;;;;;0.52;0.30;;;;;;;;;;5117184;28;20210;-62
2022/08/06 15:05:12;;;;;;;0.40;0.38;;;;;;;;;;5116686;28;20222;-63
2022/08/06 15:07:40;;;;;;;0.68;0.47;;;;;;;;;;5137796;27;20207;-63
2022/08/06 15:10:08;;;;;;;0.32;0.30;;;;;;;;;;5136677;27;20202;-62